createdAt,value
2019-02-25T00:01:53.539Z,62.20
2019-02-25T00:04:24.814Z,62.50
2019-02-25T00:06:55.850Z,63.30
2019-02-25T00:09:26.984Z,63.40
2019-02-25T00:11:57.872Z,63.20
2019-02-25T00:14:28.934Z,63.10
2019-02-25T00:17:00.303Z,63.30
2019-02-25T00:19:31.230Z,63.50
2019-02-25T00:22:02.133Z,64.20
2019-02-25T00:24:33.154Z,64.80
2019-02-25T00:27:05.131Z,65.80
2019-02-25T00:29:36.448Z,65.40
2019-02-25T00:32:07.644Z,64.80
2019-02-25T00:34:38.621Z,64.70
2019-02-25T00:37:09.654Z,65.60
2019-02-25T00:39:40.753Z,65.00
2019-02-25T00:42:11.732Z,65.40
2019-02-25T00:44:42.744Z,65.30
2019-02-25T00:47:13.914Z,65.60
2019-02-25T00:49:45.062Z,66.20
2019-02-25T00:52:16.328Z,66.90
2019-02-25T00:54:47.321Z,67.70
2019-02-25T00:57:18.485Z,68.40
2019-02-25T00:59:49.654Z,68.60
2019-02-25T01:02:20.814Z,68.70
2019-02-25T01:04:52.019Z,69.00
2019-02-25T01:07:23.371Z,69.50
2019-02-25T01:09:54.569Z,69.30
2019-02-25T01:12:25.670Z,69.50
2019-02-25T01:14:56.920Z,69.70
2019-02-25T01:17:28.133Z,69.70
2019-02-25T01:19:59.170Z,70.20
2019-02-25T01:22:30.250Z,70.30
2019-02-25T01:25:01.447Z,71.00
2019-02-25T01:27:32.756Z,71.00
2019-02-25T01:30:04.224Z,71.40
2019-02-25T01:32:35.300Z,71.70
2019-02-25T01:35:08.238Z,72.60
2019-02-25T01:37:39.605Z,71.80
2019-02-25T01:40:11.412Z,72.20
2019-02-25T01:42:43.916Z,72.00
2019-02-25T01:45:15.209Z,71.80
2019-02-25T01:47:46.123Z,71.80
2019-02-25T01:50:17.058Z,71.80
2019-02-25T01:52:47.978Z,71.70
2019-02-25T01:55:18.908Z,71.80
2019-02-25T01:57:50.960Z,71.80
2019-02-25T02:00:22.043Z,71.90
2019-02-25T02:02:53.030Z,72.10
2019-02-25T02:05:24.617Z,72.20
2019-02-25T02:07:55.649Z,72.00
2019-02-25T02:10:26.859Z,72.20
2019-02-25T02:12:57.828Z,72.20
2019-02-25T02:15:28.904Z,72.50
2019-02-25T02:18:00.975Z,73.00
2019-02-25T02:20:32.242Z,73.40
2019-02-25T02:23:03.439Z,73.60
2019-02-25T02:25:34.596Z,73.70
2019-02-25T02:28:05.666Z,74.00
2019-02-25T02:30:36.679Z,74.20
2019-02-25T02:33:07.767Z,74.40
2019-02-25T02:35:38.718Z,74.40
2019-02-25T02:38:10.158Z,74.40
2019-02-25T02:40:41.366Z,74.30
2019-02-25T02:43:12.560Z,74.30
2019-02-25T02:45:53.910Z,74.30
2019-02-25T02:48:34.737Z,74.40
2019-02-25T02:51:05.993Z,74.60
2019-02-25T02:53:37.245Z,74.60
2019-02-25T02:56:08.238Z,74.60
2019-02-25T02:58:39.246Z,74.70
2019-02-25T03:01:10.453Z,74.80
2019-02-25T03:03:41.412Z,75.00
2019-02-25T03:06:12.609Z,74.90
2019-02-25T03:08:43.957Z,75.00
2019-02-25T03:11:15.082Z,75.00
2019-02-25T03:13:45.975Z,75.00
2019-02-25T03:16:16.910Z,75.00
2019-02-25T03:18:47.800Z,75.00
2019-02-25T03:21:19.754Z,74.90
2019-02-25T03:23:50.917Z,74.70
2019-02-25T03:26:21.968Z,74.60
2019-02-25T03:28:52.991Z,74.60
2019-02-25T03:31:23.985Z,74.60
2019-02-25T03:33:54.926Z,74.50
2019-02-25T03:36:26.015Z,74.30
2019-02-25T03:38:57.163Z,74.30
2019-02-25T03:41:28.494Z,74.20
2019-02-25T03:43:59.591Z,74.20
2019-02-25T03:46:30.805Z,74.40
2019-02-25T03:49:02.026Z,74.30
2019-02-25T03:51:33.149Z,74.20
2019-02-25T03:54:04.313Z,74.30
2019-02-25T03:56:35.540Z,74.20
2019-02-25T03:59:06.629Z,74.40
2019-02-25T04:01:37.766Z,74.50
2019-02-25T04:04:08.889Z,74.50
2019-02-25T04:06:39.837Z,74.40
2019-02-25T04:09:10.889Z,74.20
2019-02-25T04:11:41.814Z,74.00
2019-02-25T04:14:16.406Z,74.00
2019-02-25T04:16:47.737Z,73.90
2019-02-25T04:19:18.799Z,73.80
2019-02-25T04:21:49.908Z,74.00
2019-02-25T04:24:29.739Z,74.50
2019-02-25T04:27:17.846Z,74.50
2019-02-25T04:29:52.407Z,74.50
2019-02-25T04:32:23.451Z,74.60
2019-02-25T04:34:54.555Z,74.40
2019-02-25T04:37:25.601Z,74.40
2019-02-25T04:39:56.785Z,74.20
2019-02-25T04:42:27.968Z,74.10
2019-02-25T04:44:59.476Z,74.10
2019-02-25T04:47:34.659Z,74.00
2019-02-25T04:50:06.500Z,74.00
2019-02-25T04:52:48.591Z,73.90
2019-02-25T04:55:21.249Z,73.70
2019-02-25T04:57:52.721Z,73.90
2019-02-25T05:00:23.728Z,73.80
2019-02-25T05:02:54.745Z,73.80
2019-02-25T05:05:25.912Z,73.90
2019-02-25T05:07:57.044Z,74.10
2019-02-25T05:10:27.967Z,74.30
2019-02-25T05:13:03.976Z,74.50
2019-02-25T05:15:35.884Z,74.70
2019-02-25T05:18:06.950Z,74.60
2019-02-25T05:20:38.056Z,74.60
2019-02-25T05:23:09.203Z,74.40
2019-02-25T05:25:40.335Z,74.20
2019-02-25T05:28:11.430Z,74.20
2019-02-25T05:30:42.593Z,74.40
2019-02-25T05:33:13.783Z,74.40
2019-02-25T05:35:44.739Z,74.50
2019-02-25T05:38:16.479Z,74.50
2019-02-25T05:40:48.220Z,74.10
2019-02-25T05:43:19.860Z,74.00
2019-02-25T05:45:50.974Z,74.00
2019-02-25T05:48:22.841Z,73.90
2019-02-25T05:50:53.914Z,73.90
2019-02-25T05:53:24.931Z,73.80
2019-02-25T05:55:56.668Z,73.80
2019-02-25T05:58:27.697Z,73.90
2019-02-25T06:00:58.796Z,73.90
2019-02-25T06:03:33.319Z,73.90
2019-02-25T06:06:11.281Z,73.90
2019-02-25T06:08:42.370Z,73.90
2019-02-25T06:11:13.669Z,73.90
2019-02-25T06:13:44.817Z,74.00
2019-02-25T06:16:15.920Z,74.20
2019-02-25T06:18:47.530Z,74.20
2019-02-25T06:21:19.079Z,74.30
2019-02-25T06:23:50.890Z,74.20
2019-02-25T06:26:22.357Z,74.30
2019-02-25T06:28:54.198Z,74.30
2019-02-25T06:31:25.838Z,74.30
2019-02-25T06:33:57.486Z,74.20
2019-02-25T06:36:29.135Z,74.10
2019-02-25T06:39:00.748Z,74.00
2019-02-25T06:41:33.897Z,73.90
2019-02-25T06:44:05.723Z,74.20
2019-02-25T06:46:37.420Z,74.30
2019-02-25T06:49:08.976Z,74.30
2019-02-25T06:51:40.580Z,73.90
2019-02-25T06:54:12.249Z,74.00
2019-02-25T06:56:43.732Z,74.00
2019-02-25T06:59:15.517Z,73.90
2019-02-25T07:01:47.038Z,73.90
2019-02-25T07:04:23.714Z,73.70
2019-02-25T07:07:02.675Z,74.40
2019-02-25T07:10:07.954Z,73.50
2019-02-25T07:12:49.052Z,73.40
2019-02-25T07:15:38.369Z,73.70
2019-02-25T07:18:27.954Z,72.80
2019-02-25T07:21:12.247Z,72.80
2019-02-25T07:23:59.915Z,72.80
2019-02-25T07:26:53.394Z,72.60
2019-02-25T07:29:51.234Z,72.30
2019-02-25T07:32:50.919Z,72.20
2019-02-25T07:35:56.570Z,72.40
2019-02-25T07:38:43.914Z,72.30
2019-02-25T07:41:32.472Z,72.60
2019-02-25T07:44:24.163Z,72.70
2019-02-25T07:47:08.028Z,72.80
2019-02-25T07:50:01.263Z,72.60
2019-02-25T07:52:54.069Z,72.50
2019-02-25T07:55:39.923Z,72.60
2019-02-25T07:58:37.720Z,72.10
2019-02-25T08:01:35.472Z,72.30
2019-02-25T08:04:43.975Z,72.60
2019-02-25T08:07:27.822Z,72.40
2019-02-25T08:10:21.285Z,72.20
2019-02-25T08:13:26.600Z,72.20
2019-02-25T08:16:22.957Z,72.40
2019-02-25T08:19:08.104Z,72.70
2019-02-25T08:22:05.608Z,72.90
2019-02-25T08:24:58.968Z,71.70
2019-02-25T08:27:49.136Z,71.50
2019-02-25T08:30:38.152Z,71.40
2019-02-25T08:33:40.976Z,71.20
2019-02-25T08:37:11.960Z,71.00
2019-02-25T08:39:58.255Z,71.00
2019-02-25T08:42:46.521Z,70.50
2019-02-25T08:45:42.660Z,70.40
2019-02-25T08:48:18.661Z,70.80
2019-02-25T08:50:50.936Z,70.70
2019-02-25T08:53:23.321Z,70.90
2019-02-25T08:55:54.997Z,70.90
2019-02-25T08:58:27.188Z,70.70
2019-02-25T09:00:58.976Z,70.30
2019-02-25T09:03:31.764Z,70.90
2019-02-25T09:06:03.438Z,71.20
2019-02-25T09:08:35.278Z,71.30
2019-02-25T09:11:13.931Z,71.30
2019-02-25T09:13:41.243Z,70.60
2019-02-25T09:16:12.859Z,70.70
2019-02-25T09:18:44.596Z,70.30
2019-02-25T09:21:16.200Z,70.60
2019-02-25T09:23:48.329Z,71.00
2019-02-25T09:26:20.487Z,72.10
2019-02-25T09:28:53.240Z,72.40
2019-02-25T09:31:25.360Z,72.60
2019-02-25T09:33:57.009Z,72.60
2019-02-25T09:36:29.176Z,72.60
2019-02-25T09:39:01.383Z,72.60
2019-02-25T09:41:34.863Z,72.40
2019-02-25T09:44:07.771Z,72.50
2019-02-25T09:46:40.066Z,72.40
2019-02-25T09:49:11.752Z,72.60
2019-02-25T09:51:43.349Z,72.60
2019-02-25T09:54:15.522Z,73.30
2019-02-25T09:56:46.672Z,72.60
2019-02-25T09:59:18.406Z,72.80
2019-02-25T10:01:50.124Z,72.50
2019-02-25T10:04:22.640Z,72.30
2019-02-25T10:07:02.150Z,72.00
2019-02-25T10:09:30.307Z,72.00
2019-02-25T10:12:01.587Z,71.90
2019-02-25T10:14:33.515Z,71.30
2019-02-25T10:17:06.769Z,71.70
2019-02-25T10:19:38.627Z,72.10
2019-02-25T10:22:10.208Z,71.80
2019-02-25T10:24:42.119Z,71.30
2019-02-25T10:27:13.687Z,71.40
2019-02-25T10:29:45.836Z,70.80
2019-02-25T10:32:17.565Z,70.70
2019-02-25T10:34:49.440Z,70.60
2019-02-25T10:37:21.026Z,69.80
2019-02-25T10:39:52.720Z,69.60
2019-02-25T10:42:24.298Z,69.80
2019-02-25T10:44:56.069Z,70.40
2019-02-25T10:47:27.558Z,70.30
2019-02-25T10:50:00.591Z,70.20
2019-02-25T10:52:32.419Z,70.00
2019-02-25T10:55:04.071Z,69.90
2019-02-25T10:57:36.070Z,70.00
2019-02-25T11:00:12.045Z,69.40
2019-02-25T11:02:46.878Z,69.30
2019-02-25T11:05:20.962Z,69.30
2019-02-25T11:07:52.241Z,68.70
2019-02-25T11:10:39.411Z,68.30
2019-02-25T11:13:11.493Z,68.30
2019-02-25T11:15:44.579Z,68.30
2019-02-25T11:18:20.252Z,68.70
2019-02-25T11:20:51.923Z,69.00
2019-02-25T11:23:23.769Z,69.20
2019-02-25T11:25:56.300Z,68.40
2019-02-25T11:28:31.661Z,67.90
2019-02-25T11:31:03.590Z,67.90
2019-02-25T11:33:35.249Z,67.90
2019-02-25T11:36:07.378Z,68.00
2019-02-25T11:38:39.496Z,68.10
2019-02-25T11:41:11.450Z,68.00
2019-02-25T11:43:45.783Z,68.00
2019-02-25T11:46:17.119Z,67.80
2019-02-25T11:48:49.814Z,67.90
2019-02-25T11:51:21.649Z,67.70
2019-02-25T11:53:53.307Z,67.60
2019-02-25T11:56:25.078Z,67.40
2019-02-25T11:58:56.730Z,67.70
2019-02-25T12:01:28.480Z,68.50
2019-02-25T12:04:00.139Z,68.00
2019-02-25T12:06:32.171Z,67.70
2019-02-25T12:09:04.249Z,67.00
2019-02-25T12:11:37.655Z,67.50
2019-02-25T12:14:09.451Z,67.10
2019-02-25T12:16:41.645Z,67.20
2019-02-25T12:19:18.019Z,67.10
2019-02-25T12:21:46.741Z,66.30
2019-02-25T12:24:18.590Z,66.30
2019-02-25T12:26:50.701Z,66.10
2019-02-25T12:29:22.637Z,65.10
2019-02-25T12:31:54.324Z,65.30
2019-02-25T12:34:26.229Z,66.00
2019-02-25T12:36:57.841Z,66.40
2019-02-25T12:39:30.103Z,66.30
2019-02-25T12:42:01.959Z,66.00
2019-02-25T12:44:33.520Z,66.40
2019-02-25T12:47:05.144Z,66.20
2019-02-25T12:49:36.772Z,66.50
2019-02-25T12:52:08.501Z,66.80
2019-02-25T12:54:40.128Z,67.60
2019-02-25T12:57:11.900Z,66.60
2019-02-25T12:59:42.871Z,66.20
2019-02-25T13:02:13.951Z,65.70
2019-02-25T13:04:45.035Z,65.20
2019-02-25T13:07:16.687Z,65.30
2019-02-25T13:09:49.471Z,65.50
2019-02-25T13:12:21.419Z,64.70
2019-02-25T13:14:52.909Z,64.90
2019-02-25T13:17:24.502Z,65.30
2019-02-25T13:19:56.278Z,65.60
2019-02-25T13:22:29.673Z,65.20
2019-02-25T13:25:03.333Z,64.80
2019-02-25T13:27:35.081Z,64.80
2019-02-25T13:30:08.039Z,64.40
2019-02-25T13:32:40.440Z,64.10
2019-02-25T13:35:12.829Z,64.10
2019-02-25T13:37:44.577Z,64.70
2019-02-25T13:40:16.449Z,65.10
2019-02-25T13:42:48.403Z,65.40
2019-02-25T13:45:20.000Z,65.10
2019-02-25T13:47:51.639Z,65.70
2019-02-25T13:50:23.378Z,66.00
2019-02-25T13:52:55.117Z,66.10
2019-02-25T13:55:26.756Z,66.50
2019-02-25T13:57:58.776Z,66.30
2019-02-25T14:00:30.555Z,66.20
2019-02-25T14:03:03.841Z,65.90
2019-02-25T14:05:35.678Z,65.90
2019-02-25T14:08:07.610Z,66.00
2019-02-25T14:10:39.394Z,65.70
2019-02-25T14:13:11.379Z,66.10
2019-02-25T14:15:42.906Z,65.70
2019-02-25T14:18:14.012Z,65.60
2019-02-25T14:20:45.377Z,65.30
2019-02-25T14:23:20.311Z,65.30
2019-02-25T14:25:52.574Z,65.10
2019-02-25T14:28:24.710Z,65.50
2019-02-25T14:30:56.462Z,65.70
2019-02-25T14:33:27.820Z,65.60
2019-02-25T14:35:59.831Z,65.70
2019-02-25T14:38:32.287Z,65.70
2019-02-25T14:41:06.607Z,65.50
2019-02-25T14:43:42.775Z,65.70
2019-02-25T14:46:12.065Z,65.70
2019-02-25T14:48:43.526Z,65.90
2019-02-25T14:51:15.248Z,66.00
2019-02-25T14:53:48.899Z,65.90
2019-02-25T14:56:57.169Z,65.60
2019-02-25T14:59:39.048Z,66.50
2019-02-25T15:02:11.252Z,65.90
2019-02-25T15:04:43.918Z,66.10
2019-02-25T15:07:15.985Z,65.90
2019-02-25T15:09:47.718Z,65.90
2019-02-25T15:12:20.754Z,65.90
2019-02-25T15:14:53.199Z,66.00
2019-02-25T15:17:25.057Z,65.90
2019-02-25T15:19:57.110Z,66.00
2019-02-25T15:22:33.958Z,66.10
2019-02-25T15:25:05.731Z,66.70
2019-02-25T15:27:37.400Z,65.80
2019-02-25T15:30:12.209Z,65.70
2019-02-25T15:32:54.857Z,65.70
2019-02-25T15:35:16.955Z,65.70
2019-02-25T15:37:50.380Z,65.80
2019-02-25T15:40:24.661Z,66.10
2019-02-25T15:43:10.456Z,66.20
2019-02-25T15:45:45.007Z,66.10
2019-02-25T15:48:21.758Z,66.20
2019-02-25T15:50:57.946Z,66.20
2019-02-25T15:53:28.682Z,66.10
2019-02-25T15:56:01.547Z,66.10
2019-02-25T15:58:32.621Z,66.20
2019-02-25T16:01:06.258Z,66.30
2019-02-25T16:03:38.790Z,66.30
2019-02-25T16:06:11.703Z,66.40
2019-02-25T16:08:42.952Z,66.30
2019-02-25T16:11:16.160Z,66.10
2019-02-25T16:13:47.355Z,66.30
2019-02-25T16:16:20.023Z,66.50
2019-02-25T16:18:53.484Z,66.40
2019-02-25T16:21:26.594Z,66.30
2019-02-25T16:24:13.674Z,66.20
2019-02-25T16:26:58.410Z,66.30
2019-02-25T16:29:29.941Z,66.50
2019-02-25T16:32:01.987Z,66.60
2019-02-25T16:34:44.571Z,67.40
2019-02-25T16:37:19.755Z,66.80
2019-02-25T16:39:53.680Z,66.90
2019-02-25T16:42:30.230Z,66.80
2019-02-25T16:45:03.836Z,66.70
2019-02-25T16:47:35.589Z,66.80
2019-02-25T16:50:07.938Z,66.90
2019-02-25T16:52:41.159Z,67.10
2019-02-25T16:55:15.359Z,67.10
2019-02-25T16:57:47.793Z,67.20
2019-02-25T17:00:19.834Z,67.10
2019-02-25T17:02:51.601Z,67.10
2019-02-25T17:05:22.717Z,66.90
2019-02-25T17:07:56.000Z,66.80
2019-02-25T17:10:29.192Z,66.70
2019-02-25T17:12:59.832Z,66.70
2019-02-25T17:15:31.115Z,66.50
2019-02-25T17:18:02.454Z,66.40
2019-02-25T17:20:34.315Z,66.40
2019-02-25T17:23:09.535Z,66.40
2019-02-25T17:25:40.777Z,66.50
2019-02-25T17:28:14.731Z,66.60
2019-02-25T17:30:45.670Z,66.40
2019-02-25T17:33:17.880Z,66.70
2019-02-25T17:35:49.926Z,66.90
2019-02-25T17:38:23.009Z,67.00
2019-02-25T17:40:54.853Z,66.90
2019-02-25T17:43:25.993Z,67.00
2019-02-25T17:45:58.253Z,67.00
2019-02-25T17:48:31.142Z,67.00
2019-02-25T17:51:03.903Z,67.10
2019-02-25T17:53:36.484Z,67.10
2019-02-25T17:56:08.406Z,67.10
2019-02-25T17:58:42.013Z,67.00
2019-02-25T18:01:13.318Z,66.90
2019-02-25T18:03:46.080Z,66.80
2019-02-25T18:06:20.167Z,66.70
2019-02-25T18:08:53.200Z,66.60
2019-02-25T18:11:24.732Z,66.60
2019-02-25T18:13:57.818Z,66.70
2019-02-25T18:16:32.765Z,66.80
2019-02-25T18:19:01.995Z,66.80
2019-02-25T18:21:33.997Z,66.70
2019-02-25T18:24:05.863Z,66.60
2019-02-25T18:26:37.518Z,66.70
2019-02-25T18:29:09.774Z,66.60
2019-02-25T18:31:42.847Z,66.60
2019-02-25T18:34:15.075Z,66.60
2019-02-25T18:36:48.847Z,66.50
2019-02-25T18:39:21.378Z,66.60
2019-02-25T18:41:54.965Z,66.80
2019-02-25T18:44:26.139Z,66.90
2019-02-25T18:46:59.694Z,67.00
2019-02-25T18:49:32.546Z,67.10
2019-02-25T18:52:04.048Z,67.10
2019-02-25T18:54:36.912Z,67.20
2019-02-25T18:57:09.220Z,67.10
2019-02-25T18:59:40.645Z,67.10
2019-02-25T19:02:14.047Z,67.10
2019-02-25T19:04:45.730Z,67.20
2019-02-25T19:07:17.063Z,67.10
2019-02-25T19:09:51.480Z,67.10
2019-02-25T19:12:22.575Z,67.00
2019-02-25T19:14:55.809Z,67.80
2019-02-25T19:17:29.793Z,67.00
2019-02-25T19:20:01.564Z,67.10
2019-02-25T19:22:33.966Z,67.30
2019-02-25T19:25:09.365Z,67.50
2019-02-25T19:27:40.308Z,68.50
2019-02-25T19:30:12.350Z,67.70
2019-02-25T19:32:44.027Z,67.90
2019-02-25T19:35:15.686Z,68.00
2019-02-25T19:37:47.049Z,67.90
2019-02-25T19:40:21.996Z,67.90
2019-02-25T19:42:54.232Z,68.10
2019-02-25T19:45:26.996Z,68.30
2019-02-25T19:48:00.580Z,68.60
2019-02-25T19:50:32.900Z,68.70
2019-02-25T19:53:07.017Z,68.80
2019-02-25T19:55:40.980Z,69.00
2019-02-25T19:58:11.993Z,69.00
2019-02-25T20:00:44.844Z,69.20
2019-02-25T20:03:16.629Z,69.40
2019-02-25T20:05:48.936Z,69.70
2019-02-25T20:08:21.203Z,69.80
2019-02-25T20:10:54.813Z,69.90
2019-02-25T20:13:26.286Z,70.00
2019-02-25T20:16:07.307Z,70.00
2019-02-25T20:18:33.274Z,70.10
2019-02-25T20:21:06.456Z,69.40
2019-02-25T20:23:37.866Z,70.30
2019-02-25T20:26:13.281Z,70.30
2019-02-25T20:28:43.445Z,70.50
2019-02-25T20:31:16.755Z,70.40
2019-02-25T20:33:48.441Z,70.40
2019-02-25T20:36:22.066Z,70.30
2019-02-25T20:38:53.518Z,70.30
2019-02-25T20:41:26.797Z,71.10
2019-02-25T20:44:00.137Z,70.40
2019-02-25T20:46:32.777Z,70.40
2019-02-25T20:49:04.950Z,70.40
2019-02-25T20:51:36.677Z,70.50
2019-02-25T20:54:11.144Z,70.40
2019-02-25T20:56:42.621Z,70.40
2019-02-25T20:59:14.866Z,70.60
2019-02-25T21:01:48.298Z,70.60
2019-02-25T21:04:20.185Z,70.70
2019-02-25T21:06:52.052Z,70.70
2019-02-25T21:09:23.648Z,70.90
2019-02-25T21:11:55.265Z,71.00
2019-02-25T21:14:29.531Z,71.00
2019-02-25T21:17:01.043Z,71.00
2019-02-25T21:19:33.412Z,70.80
2019-02-25T21:22:06.471Z,70.70
2019-02-25T21:24:37.750Z,70.70
2019-02-25T21:27:10.422Z,70.60
2019-02-25T21:29:41.513Z,70.60
2019-02-25T21:32:15.090Z,70.70
2019-02-25T21:34:50.108Z,70.80
2019-02-25T21:37:18.785Z,70.70
2019-02-25T21:39:50.658Z,70.60
2019-02-25T21:42:22.375Z,70.50
2019-02-25T21:44:56.916Z,70.40
2019-02-25T21:47:28.784Z,70.20
2019-02-25T21:50:01.408Z,70.20
2019-02-25T21:52:36.829Z,70.10
2019-02-25T21:55:09.307Z,70.10
2019-02-25T21:57:41.085Z,70.20
2019-02-25T22:00:14.258Z,70.30
2019-02-25T22:02:48.088Z,70.10
2019-02-25T22:05:21.354Z,70.20
2019-02-25T22:07:54.261Z,70.30
2019-02-25T22:10:25.205Z,70.30
2019-02-25T22:12:56.557Z,70.30
2019-02-25T22:15:27.564Z,70.00
2019-02-25T22:17:58.529Z,70.10
2019-02-25T22:20:29.429Z,70.00
2019-02-25T22:23:01.504Z,70.10
2019-02-25T22:25:33.153Z,70.00
2019-02-25T22:28:05.353Z,70.00
2019-02-25T22:30:37.649Z,70.00
2019-02-25T22:33:23.023Z,69.90
2019-02-25T22:35:42.958Z,69.90
2019-02-25T22:38:13.928Z,69.80
2019-02-25T22:40:44.829Z,69.60
2019-02-25T22:43:16.494Z,69.50
2019-02-25T22:45:48.558Z,69.30
2019-02-25T22:48:21.562Z,69.10
2019-02-25T22:50:55.341Z,68.80
2019-02-25T22:53:24.895Z,68.40
2019-02-25T22:55:56.971Z,68.30
2019-02-25T22:58:28.102Z,68.00
2019-02-25T23:01:20.448Z,67.90
2019-02-25T23:03:54.510Z,67.70
2019-02-25T23:06:25.382Z,67.60
2019-02-25T23:08:56.899Z,67.10
2019-02-25T23:11:27.829Z,67.00
2019-02-25T23:13:58.959Z,66.90
2019-02-25T23:16:29.954Z,67.10
2019-02-25T23:19:00.864Z,67.00
2019-02-25T23:21:33.795Z,67.00
2019-02-25T23:24:05.701Z,67.00
2019-02-25T23:26:37.318Z,67.00
2019-02-25T23:29:08.255Z,67.10
2019-02-25T23:31:39.155Z,67.00
2019-02-25T23:34:10.323Z,66.90
2019-02-25T23:36:44.782Z,66.90
2019-02-25T23:39:17.648Z,67.50
2019-02-25T23:41:48.693Z,66.90
2019-02-25T23:44:20.344Z,66.90
2019-02-25T23:46:55.377Z,66.90
2019-02-25T23:49:27.558Z,66.90
2019-02-25T23:51:57.555Z,67.00
2019-02-25T23:54:28.520Z,67.00
2019-02-25T23:57:00.171Z,67.10
2019-02-25T23:59:32.109Z,66.90
